createdAt,value
2023-05-07T00:00:49.473Z,9.719348
2023-05-07T00:01:49.441Z,9.719440
2023-05-07T00:02:49.531Z,9.719251
2023-05-07T00:03:49.648Z,9.719434
2023-05-07T00:04:49.446Z,9.719398
2023-05-07T00:05:50.395Z,9.719252
2023-05-07T00:06:49.481Z,9.719018
2023-05-07T00:07:49.393Z,9.718954
2023-05-07T00:08:49.376Z,9.718816
2023-05-07T00:09:49.373Z,9.719030
2023-05-07T00:10:49.370Z,9.719053
2023-05-07T00:11:49.376Z,9.719250
2023-05-07T00:12:49.387Z,9.719070
2023-05-07T00:13:49.349Z,9.718965
2023-05-07T00:14:49.334Z,9.718957
2023-05-07T00:15:49.404Z,9.719128
2023-05-07T00:16:49.386Z,9.719180
2023-05-07T00:17:49.329Z,9.719167
2023-05-07T00:18:49.300Z,9.719028
2023-05-07T00:19:49.293Z,9.719040
2023-05-07T00:20:49.254Z,9.719049
2023-05-07T00:21:49.290Z,9.718914
2023-05-07T00:22:49.265Z,9.718944
2023-05-07T00:23:49.245Z,9.719151
2023-05-07T00:24:49.224Z,9.719359
2023-05-07T00:25:49.233Z,9.719164
2023-05-07T00:26:49.197Z,9.719182
2023-05-07T00:27:49.244Z,9.719226
2023-05-07T00:28:49.175Z,9.719201
2023-05-07T00:29:49.176Z,9.719152
2023-05-07T00:30:50.158Z,9.719198
2023-05-07T00:31:49.184Z,9.719263
2023-05-07T00:32:49.155Z,9.719241
2023-05-07T00:33:49.141Z,9.719242
2023-05-07T00:34:49.196Z,9.719213
2023-05-07T00:35:49.102Z,9.719195
2023-05-07T00:36:49.161Z,9.719213
2023-05-07T00:37:49.094Z,9.719294
2023-05-07T00:38:49.087Z,9.719234
2023-05-07T00:39:49.122Z,9.719311
2023-05-07T00:40:49.065Z,9.719377
2023-05-07T00:41:49.052Z,9.719427
2023-05-07T00:42:49.036Z,9.719357
2023-05-07T00:43:49.018Z,9.719209
2023-05-07T00:44:49.066Z,9.719310
2023-05-07T00:45:49.064Z,9.719202
2023-05-07T00:46:49.005Z,9.719297
2023-05-07T00:47:49.107Z,9.719204
2023-05-07T00:48:49.022Z,9.719290
2023-05-07T00:49:48.975Z,9.719197
2023-05-07T00:50:48.950Z,9.719203
2023-05-07T00:51:48.983Z,9.719202
2023-05-07T00:52:48.939Z,9.719132
2023-05-07T00:53:48.915Z,9.719234
2023-05-07T00:54:48.957Z,9.719289
2023-05-07T00:55:48.912Z,9.719134
2023-05-07T00:56:48.919Z,9.719158
2023-05-07T00:57:48.881Z,9.719193
2023-05-07T00:58:48.905Z,9.719249
2023-05-07T00:59:48.857Z,9.719157
2023-05-07T01:00:48.962Z,9.719111
2023-05-07T01:01:48.957Z,9.719147
2023-05-07T01:02:48.887Z,9.719307
2023-05-07T01:03:48.907Z,9.719110
2023-05-07T01:04:48.885Z,9.719109
2023-05-07T01:05:48.879Z,9.718965
2023-05-07T01:06:48.796Z,9.719091
2023-05-07T01:07:48.840Z,9.719180
2023-05-07T01:08:48.787Z,9.718979
2023-05-07T01:09:48.785Z,9.718897
2023-05-07T01:10:48.753Z,9.719021
2023-05-07T01:11:48.767Z,9.718985
2023-05-07T01:12:48.786Z,9.718987
2023-05-07T01:13:48.756Z,9.718927
2023-05-07T01:14:48.714Z,9.718986
2023-05-07T01:15:48.799Z,9.718988
2023-05-07T01:16:48.731Z,9.719007
2023-05-07T01:17:48.699Z,9.718903
2023-05-07T01:18:48.712Z,9.718913
2023-05-07T01:19:48.658Z,9.718997
2023-05-07T01:20:48.739Z,9.719153
2023-05-07T01:21:48.682Z,9.719148
2023-05-07T01:22:48.645Z,9.719059
2023-05-07T01:23:48.638Z,9.719008
2023-05-07T01:24:49.695Z,9.718993
2023-05-07T01:25:48.612Z,9.718954
2023-05-07T01:26:48.651Z,9.719008
2023-05-07T01:27:48.650Z,9.719028
2023-05-07T01:28:48.599Z,9.719027
2023-05-07T01:29:48.570Z,9.719017
2023-05-07T01:30:48.609Z,9.719011
2023-05-07T01:31:48.584Z,9.719053
2023-05-07T01:32:48.582Z,9.719150
2023-05-07T01:33:48.586Z,9.719176
2023-05-07T01:34:48.543Z,9.719134
2023-05-07T01:35:48.594Z,9.719048
2023-05-07T01:36:48.554Z,9.719074
2023-05-07T01:37:48.489Z,9.719150
2023-05-07T01:38:48.497Z,9.719183
2023-05-07T01:39:48.562Z,9.719141
2023-05-07T01:40:48.467Z,9.719117
2023-05-07T01:41:48.467Z,9.719094
2023-05-07T01:42:48.466Z,9.719192
2023-05-07T01:43:48.424Z,9.719170
2023-05-07T01:44:48.417Z,9.719085
2023-05-07T01:45:48.440Z,9.719107
2023-05-07T01:46:48.511Z,9.719136
2023-05-07T01:47:48.427Z,9.719130
2023-05-07T01:48:48.421Z,9.719213
2023-05-07T01:49:48.385Z,9.719192
2023-05-07T01:50:48.358Z,9.719222
2023-05-07T01:51:48.395Z,9.719169
2023-05-07T01:52:48.362Z,9.719202
2023-05-07T01:53:48.324Z,9.719102
2023-05-07T01:54:48.346Z,9.719092
2023-05-07T01:55:48.333Z,9.719133
2023-05-07T01:56:48.295Z,9.719087
2023-05-07T01:57:48.289Z,9.719113
2023-05-07T01:58:48.281Z,9.719163
2023-05-07T01:59:48.274Z,9.719132
2023-05-07T02:00:48.408Z,9.719177
2023-05-07T02:01:48.283Z,9.719252
2023-05-07T02:02:48.372Z,9.719101
2023-05-07T02:03:48.353Z,9.719108
2023-05-07T02:04:48.214Z,9.719105
2023-05-07T02:05:49.235Z,9.719126
2023-05-07T02:06:48.260Z,9.719107
2023-05-07T02:07:48.192Z,9.719136
2023-05-07T02:08:48.166Z,9.719127
2023-05-07T02:09:48.194Z,9.719051
2023-05-07T02:10:48.282Z,9.719005
2023-05-07T02:11:48.149Z,9.719089
2023-05-07T02:12:48.192Z,9.719138
2023-05-07T02:13:48.126Z,9.719136
2023-05-07T02:14:48.131Z,9.719148
2023-05-07T02:15:48.144Z,9.719236
2023-05-07T02:16:48.197Z,9.719365
2023-05-07T02:17:48.123Z,9.719325
2023-05-07T02:18:48.110Z,9.719139
2023-05-07T02:19:48.069Z,9.719125
2023-05-07T02:20:48.059Z,9.719247
2023-05-07T02:21:48.102Z,9.719385
2023-05-07T02:22:48.125Z,9.719382
2023-05-07T02:23:48.088Z,9.719441
2023-05-07T02:24:48.037Z,9.719255
2023-05-07T02:25:48.013Z,9.719240
2023-05-07T02:26:47.999Z,9.719119
2023-05-07T02:27:48.087Z,9.719226
2023-05-07T02:28:48.003Z,9.719329
2023-05-07T02:29:47.988Z,9.719274
2023-05-07T02:30:48.051Z,9.719175
2023-05-07T02:31:47.985Z,9.719072
2023-05-07T02:32:48.009Z,9.719171
2023-05-07T02:33:47.941Z,9.719290
2023-05-07T02:34:47.920Z,9.719305
2023-05-07T02:35:47.931Z,9.719275
2023-05-07T02:36:47.914Z,9.719162
2023-05-07T02:37:47.930Z,9.719262
2023-05-07T02:38:48.911Z,9.719246
2023-05-07T02:39:48.072Z,9.719156
2023-05-07T02:40:47.869Z,9.719084
2023-05-07T02:41:47.882Z,9.719101
2023-05-07T02:42:47.852Z,9.719258
2023-05-07T02:43:47.853Z,9.719148
2023-05-07T02:44:47.814Z,9.719146
2023-05-07T02:45:47.911Z,9.719169
2023-05-07T02:46:47.845Z,9.719283
2023-05-07T02:47:47.867Z,9.719342
2023-05-07T02:48:47.805Z,9.719192
2023-05-07T02:49:48.774Z,9.719159
2023-05-07T02:50:47.763Z,9.719258
2023-05-07T02:51:47.775Z,9.719278
2023-05-07T02:52:47.764Z,9.719303
2023-05-07T02:53:47.763Z,9.719140
2023-05-07T02:54:47.745Z,9.719144
2023-05-07T02:55:47.771Z,9.719164
2023-05-07T02:56:47.714Z,9.719160
2023-05-07T02:57:47.708Z,9.719146
2023-05-07T02:58:47.703Z,9.719108
2023-05-07T02:59:47.676Z,9.719150
2023-05-07T03:00:47.709Z,9.719204
2023-05-07T03:01:47.764Z,9.719165
2023-05-07T03:02:47.668Z,9.719160
2023-05-07T03:03:47.821Z,9.719144
2023-05-07T03:04:47.620Z,9.719143
2023-05-07T03:05:47.605Z,9.719091
2023-05-07T03:06:47.602Z,9.719181
2023-05-07T03:07:47.642Z,9.719143
2023-05-07T03:08:47.600Z,9.719119
2023-05-07T03:09:47.612Z,9.719103
2023-05-07T03:10:47.560Z,9.719106
2023-05-07T03:11:47.545Z,9.719177
2023-05-07T03:12:47.629Z,9.719168
2023-05-07T03:13:47.524Z,9.719153
2023-05-07T03:14:47.536Z,9.719121
2023-05-07T03:15:47.603Z,9.719097
2023-05-07T03:16:47.503Z,9.719151
2023-05-07T03:17:47.564Z,9.719135
2023-05-07T03:18:47.600Z,9.719075
2023-05-07T03:19:47.468Z,9.719050
2023-05-07T03:20:47.584Z,9.718991
2023-05-07T03:21:47.485Z,9.718965
2023-05-07T03:22:47.451Z,9.719060
2023-05-07T03:23:47.453Z,9.719088
2023-05-07T03:24:47.439Z,9.719233
2023-05-07T03:25:47.421Z,9.719189
2023-05-07T03:26:47.427Z,9.719157
2023-05-07T03:27:47.447Z,9.719143
2023-05-07T03:29:19.372Z,9.719128
2023-05-07T03:29:47.383Z,9.719209
2023-05-07T03:30:47.377Z,9.719133
2023-05-07T03:31:47.417Z,9.719098
2023-05-07T03:32:47.394Z,9.719120
2023-05-07T03:33:47.346Z,9.719179
2023-05-07T03:34:47.344Z,9.719218
2023-05-07T03:35:47.306Z,9.719086
2023-05-07T03:36:47.337Z,9.719084
2023-05-07T03:37:47.311Z,9.719084
2023-05-07T03:38:47.318Z,9.719253
2023-05-07T03:39:47.279Z,9.719234
2023-05-07T03:40:47.283Z,9.719312
2023-05-07T03:41:47.274Z,9.719259
2023-05-07T03:42:47.254Z,9.719077
2023-05-07T03:43:47.379Z,9.719215
2023-05-07T03:44:47.229Z,9.718953
2023-05-07T03:45:47.249Z,9.719215
2023-05-07T03:46:47.285Z,9.719312
2023-05-07T03:47:47.241Z,9.719743
2023-05-07T03:48:47.197Z,9.719179
2023-05-07T03:49:47.198Z,9.719375
2023-05-07T03:50:47.209Z,9.719454
2023-05-07T03:51:47.192Z,9.719432
2023-05-07T03:52:47.193Z,9.719174
2023-05-07T03:53:47.130Z,9.719127
2023-05-07T03:54:47.137Z,9.719203
2023-05-07T03:55:47.162Z,9.719142
2023-05-07T03:56:47.127Z,9.719149
2023-05-07T03:57:47.120Z,9.719296
2023-05-07T03:58:47.115Z,9.719356
2023-05-07T03:59:47.148Z,9.719274
2023-05-07T04:00:47.105Z,9.719233
2023-05-07T04:01:47.111Z,9.719258
2023-05-07T04:02:47.206Z,9.719262
2023-05-07T04:03:47.102Z,9.719184
2023-05-07T04:04:47.038Z,9.719269
2023-05-07T04:05:47.083Z,9.719279
2023-05-07T04:06:47.011Z,9.719260
2023-05-07T04:07:47.039Z,9.719208
2023-05-07T04:08:47.002Z,9.719228
2023-05-07T04:09:47.005Z,9.719200
2023-05-07T04:10:46.974Z,9.719193
2023-05-07T04:11:46.979Z,9.719229
2023-05-07T04:12:46.976Z,9.719325
2023-05-07T04:13:46.949Z,9.719295
2023-05-07T04:14:46.932Z,9.719213
2023-05-07T04:15:47.014Z,9.719164
2023-05-07T04:16:47.002Z,9.719261
2023-05-07T04:17:46.965Z,9.719233
2023-05-07T04:18:46.934Z,9.719222
2023-05-07T04:19:46.969Z,9.719246
2023-05-07T04:20:46.902Z,9.719262
2023-05-07T04:21:46.861Z,9.719296
2023-05-07T04:22:46.875Z,9.719248
2023-05-07T04:23:46.871Z,9.719274
2023-05-07T04:24:46.838Z,9.719289
2023-05-07T04:25:46.839Z,9.719263
2023-05-07T04:26:46.836Z,9.719249
2023-05-07T04:27:46.805Z,9.719233
2023-05-07T04:28:46.849Z,9.719271
2023-05-07T04:29:46.794Z,9.719439
2023-05-07T04:30:46.798Z,9.719360
2023-05-07T04:31:46.885Z,9.719280
2023-05-07T04:32:46.773Z,9.719250
2023-05-07T04:33:46.765Z,9.719161
2023-05-07T04:34:46.762Z,9.719282
2023-05-07T04:35:46.729Z,9.719280
2023-05-07T04:36:46.744Z,9.719191
2023-05-07T04:37:46.721Z,9.719201
2023-05-07T04:38:46.692Z,9.719165
2023-05-07T04:39:46.711Z,9.719109
2023-05-07T04:40:46.692Z,9.719261
2023-05-07T04:41:46.660Z,9.719378
2023-05-07T04:42:46.684Z,9.719408
2023-05-07T04:43:46.660Z,9.719314
2023-05-07T04:44:46.656Z,9.719436
2023-05-07T04:45:46.663Z,9.719422
2023-05-07T04:46:46.640Z,9.719549
2023-05-07T04:47:46.692Z,9.719401
2023-05-07T04:48:46.614Z,9.719379
2023-05-07T04:49:46.613Z,9.719380
2023-05-07T04:50:46.592Z,9.719496
2023-05-07T04:51:46.608Z,9.719547
2023-05-07T04:52:46.558Z,9.719534
2023-05-07T04:53:46.550Z,9.719582
2023-05-07T04:54:46.597Z,9.719440
2023-05-07T04:55:46.532Z,9.719475
2023-05-07T04:56:46.519Z,9.719614
2023-05-07T04:57:46.501Z,9.719578
2023-05-07T04:58:46.499Z,9.719493
2023-05-07T04:59:46.515Z,9.719513
2023-05-07T05:00:46.493Z,9.719415
2023-05-07T05:01:46.494Z,9.719460
2023-05-07T05:02:46.504Z,9.719513
2023-05-07T05:03:46.547Z,9.719508
2023-05-07T05:04:46.459Z,9.719581
2023-05-07T05:05:46.434Z,9.719440
2023-05-07T05:06:46.422Z,9.719501
2023-05-07T05:07:46.397Z,9.719533
2023-05-07T05:08:46.397Z,9.719363
2023-05-07T05:09:46.409Z,9.719202
2023-05-07T05:10:46.408Z,9.719232
2023-05-07T05:11:46.381Z,9.719215
2023-05-07T05:12:46.373Z,9.719338
2023-05-07T05:13:46.373Z,9.719249
2023-05-07T05:14:46.392Z,9.719108
2023-05-07T05:15:46.380Z,9.719192
2023-05-07T05:16:46.344Z,9.719311
2023-05-07T05:17:46.367Z,9.719425
2023-05-07T05:18:46.316Z,9.719275
2023-05-07T05:19:46.310Z,9.719368
2023-05-07T05:20:46.283Z,9.719531
2023-05-07T05:21:46.324Z,9.719376
2023-05-07T05:22:46.266Z,9.719223
2023-05-07T05:23:46.247Z,9.719197
2023-05-07T05:24:46.238Z,9.719172
2023-05-07T05:25:46.264Z,9.719126
2023-05-07T05:26:46.234Z,9.719087
2023-05-07T05:27:46.210Z,9.719087
2023-05-07T05:28:46.195Z,9.719266
2023-05-07T05:29:46.171Z,9.719316
2023-05-07T05:30:46.175Z,9.719717
2023-05-07T05:31:46.243Z,9.719460
2023-05-07T05:32:46.189Z,9.719208
2023-05-07T05:33:46.154Z,9.718982
2023-05-07T05:34:46.147Z,9.719143
2023-05-07T05:35:46.190Z,9.719079
2023-05-07T05:36:46.175Z,9.719064
2023-05-07T05:37:46.139Z,9.719234
2023-05-07T05:38:46.133Z,9.719146
2023-05-07T05:39:47.069Z,9.719009
2023-05-07T05:40:46.260Z,9.719142
2023-05-07T05:41:46.172Z,9.718929
2023-05-07T05:42:47.469Z,9.719135
2023-05-07T05:43:46.135Z,9.718967
2023-05-07T05:44:46.067Z,9.719094
2023-05-07T05:45:46.033Z,9.719159
2023-05-07T05:46:46.134Z,9.719407
2023-05-07T05:47:46.066Z,9.719494
2023-05-07T05:48:45.997Z,9.719100
2023-05-07T05:49:46.023Z,9.718944
2023-05-07T05:50:45.973Z,9.719136
2023-05-07T05:51:45.969Z,9.719008
2023-05-07T05:52:45.946Z,9.719054
2023-05-07T05:53:46.043Z,9.719092
2023-05-07T05:54:45.951Z,9.719118
2023-05-07T05:55:45.926Z,9.719079
2023-05-07T05:56:45.922Z,9.719243
2023-05-07T05:57:45.920Z,9.719213
2023-05-07T05:58:45.948Z,9.719065
2023-05-07T05:59:45.899Z,9.719024
2023-05-07T06:00:45.906Z,9.719076
2023-05-07T06:01:45.925Z,9.719013
2023-05-07T06:02:46.027Z,9.719017
2023-05-07T06:03:45.864Z,9.719015
2023-05-07T06:04:45.903Z,9.719019
2023-05-07T06:05:45.837Z,9.719007
2023-05-07T06:06:45.826Z,9.718796
2023-05-07T06:07:46.005Z,9.718906
2023-05-07T06:08:45.789Z,9.719052
2023-05-07T06:09:45.813Z,9.719151
2023-05-07T06:10:45.775Z,9.719087
2023-05-07T06:11:45.750Z,9.719101
2023-05-07T06:12:45.805Z,9.719202
2023-05-07T06:13:45.780Z,9.719172
2023-05-07T06:14:45.759Z,9.719185
2023-05-07T06:15:45.737Z,9.719215
2023-05-07T06:16:45.798Z,9.719274
2023-05-07T06:17:45.740Z,9.719277
2023-05-07T06:18:45.682Z,9.719160
2023-05-07T06:19:45.698Z,9.719106
2023-05-07T06:20:45.664Z,9.719073
2023-05-07T06:21:45.732Z,9.719023
2023-05-07T06:22:45.650Z,9.718968
2023-05-07T06:23:45.724Z,9.719065
2023-05-07T06:24:45.624Z,9.719100
2023-05-07T06:25:45.660Z,9.719046
2023-05-07T06:26:47.057Z,9.719157
2023-05-07T06:27:46.627Z,9.719209
2023-05-07T06:28:49.438Z,9.719123
2023-05-07T06:29:47.141Z,9.719013
2023-05-07T06:30:45.717Z,9.719069
2023-05-07T06:31:45.630Z,9.719013
2023-05-07T06:32:45.636Z,9.719095
2023-05-07T06:33:45.561Z,9.719127
2023-05-07T06:34:45.563Z,9.719110
2023-05-07T06:35:45.516Z,9.719091
2023-05-07T06:36:45.526Z,9.719068
2023-05-07T06:37:45.502Z,9.719038
2023-05-07T06:38:45.599Z,9.718988
2023-05-07T06:39:45.549Z,9.718974
2023-05-07T06:40:45.471Z,9.719043
2023-05-07T06:41:45.461Z,9.718999
2023-05-07T06:42:45.452Z,9.718961
2023-05-07T06:43:45.467Z,9.719024
2023-05-07T06:44:45.429Z,9.719153
2023-05-07T06:45:45.417Z,9.719209
2023-05-07T06:46:45.501Z,9.719075
2023-05-07T06:47:45.513Z,9.719082
2023-05-07T06:48:45.403Z,9.719149
2023-05-07T06:49:45.385Z,9.719229
2023-05-07T06:50:45.379Z,9.719284
2023-05-07T06:51:45.382Z,9.719374
2023-05-07T06:52:45.417Z,9.719268
2023-05-07T06:53:45.363Z,9.719279
2023-05-07T06:54:45.338Z,9.719254
2023-05-07T06:55:45.362Z,9.719264
2023-05-07T06:56:45.312Z,9.719256
2023-05-07T06:57:45.391Z,9.719275
2023-05-07T06:58:45.296Z,9.719177
2023-05-07T06:59:45.294Z,9.719182
2023-05-07T07:00:45.276Z,9.719216
2023-05-07T07:01:45.380Z,9.719134
2023-05-07T07:02:45.329Z,9.719160
2023-05-07T07:03:45.378Z,9.719272
2023-05-07T07:04:45.346Z,9.719325
2023-05-07T07:05:45.232Z,9.719396
2023-05-07T07:06:45.254Z,9.719356
2023-05-07T07:07:45.216Z,9.719236
2023-05-07T07:08:45.221Z,9.719270
2023-05-07T07:09:45.197Z,9.719200
2023-05-07T07:10:45.235Z,9.719076
2023-05-07T07:11:45.198Z,9.719357
2023-05-07T07:12:45.176Z,9.719241
2023-05-07T07:13:45.162Z,9.719022
2023-05-07T07:14:46.202Z,9.719224
2023-05-07T07:15:45.213Z,9.719275
2023-05-07T07:16:45.121Z,9.719427
2023-05-07T07:17:45.149Z,9.719441
2023-05-07T07:18:45.123Z,9.719215
2023-05-07T07:19:45.109Z,9.719154
2023-05-07T07:20:45.068Z,9.719096
2023-05-07T07:21:45.179Z,9.719040
2023-05-07T07:22:45.095Z,9.718813
2023-05-07T07:23:45.054Z,9.718915
2023-05-07T07:24:45.065Z,9.719151
2023-05-07T07:25:45.017Z,9.719166
2023-05-07T07:26:45.028Z,9.718949
2023-05-07T07:27:45.003Z,9.719058
2023-05-07T07:28:45.492Z,9.719120
2023-05-07T07:29:46.066Z,9.719060
2023-05-07T07:30:44.985Z,9.719003
2023-05-07T07:31:45.044Z,9.719245
2023-05-07T07:32:44.973Z,9.719348
2023-05-07T07:33:44.967Z,9.719067
2023-05-07T07:34:44.970Z,9.719277
2023-05-07T07:35:44.929Z,9.719284
2023-05-07T07:36:46.701Z,9.719391
2023-05-07T07:37:45.919Z,9.719136
2023-05-07T07:38:44.907Z,9.719154
2023-05-07T07:39:44.878Z,9.719239
2023-05-07T07:40:44.953Z,9.719240
2023-05-07T07:41:44.879Z,9.719206
2023-05-07T07:42:44.850Z,9.719249
2023-05-07T07:43:44.890Z,9.719310
2023-05-07T07:44:44.835Z,9.719181
2023-05-07T07:45:44.837Z,9.719056
2023-05-07T07:46:44.980Z,9.719035
2023-05-07T07:47:44.905Z,9.719258
2023-05-07T07:48:44.796Z,9.719303
2023-05-07T07:49:44.786Z,9.719241
2023-05-07T07:50:46.131Z,9.719222
2023-05-07T07:51:45.916Z,9.719232
2023-05-07T07:52:44.881Z,9.719357
2023-05-07T07:53:44.799Z,9.719350
2023-05-07T07:54:44.756Z,9.719266
2023-05-07T07:55:44.730Z,9.719283
2023-05-07T07:56:44.721Z,9.719095
2023-05-07T07:57:44.761Z,9.719156
2023-05-07T07:58:44.696Z,9.719134
2023-05-07T07:59:44.744Z,9.719155
2023-05-07T08:00:44.661Z,9.719169
2023-05-07T08:01:44.734Z,9.718983
2023-05-07T08:02:44.800Z,9.719107
2023-05-07T08:03:44.747Z,9.719231
2023-05-07T08:04:44.636Z,9.719304
2023-05-07T08:05:44.624Z,9.719257
2023-05-07T08:06:44.663Z,9.719348
2023-05-07T08:07:45.613Z,9.719287
2023-05-07T08:08:44.648Z,9.719308
2023-05-07T08:09:44.577Z,9.719196
2023-05-07T08:10:44.561Z,9.719143
2023-05-07T08:11:44.582Z,9.719179
2023-05-07T08:12:44.561Z,9.719349
2023-05-07T08:13:44.547Z,9.719237
2023-05-07T08:14:44.532Z,9.719158
2023-05-07T08:15:44.551Z,9.719055
2023-05-07T08:16:44.542Z,9.719114
2023-05-07T08:17:44.579Z,9.719212
2023-05-07T08:18:44.528Z,9.719346
2023-05-07T08:19:44.498Z,9.719303
2023-05-07T08:20:44.472Z,9.719149
2023-05-07T08:21:44.476Z,9.719109
2023-05-07T08:22:44.503Z,9.719165
2023-05-07T08:23:44.468Z,9.719326
2023-05-07T08:24:44.464Z,9.719467
2023-05-07T08:25:44.464Z,9.719379
2023-05-07T08:26:44.425Z,9.719298
2023-05-07T08:27:44.410Z,9.719223
2023-05-07T08:28:44.434Z,9.719278
2023-05-07T08:29:44.422Z,9.719131
2023-05-07T08:30:44.435Z,9.719317
2023-05-07T08:31:44.464Z,9.719253
2023-05-07T08:32:44.388Z,9.719316
2023-05-07T08:33:44.372Z,9.719305
2023-05-07T08:34:44.335Z,9.719440
2023-05-07T08:35:44.346Z,9.719719
2023-05-07T08:36:44.324Z,9.719322
2023-05-07T08:37:44.317Z,9.719138
2023-05-07T08:38:44.320Z,9.719147
2023-05-07T08:39:44.299Z,9.719094
2023-05-07T08:40:44.284Z,9.719244
2023-05-07T08:41:45.294Z,9.719183
2023-05-07T08:42:44.271Z,9.719182
2023-05-07T08:43:44.258Z,9.719224
2023-05-07T08:44:44.257Z,9.719036
2023-05-07T08:45:44.234Z,9.719193
2023-05-07T08:46:44.292Z,9.719137
2023-05-07T08:47:44.349Z,9.719099
2023-05-07T08:48:44.188Z,9.719203
2023-05-07T08:49:44.204Z,9.719310
2023-05-07T08:50:44.207Z,9.719472
2023-05-07T08:51:44.226Z,9.719454
2023-05-07T08:52:44.163Z,9.719414
2023-05-07T08:53:44.152Z,9.719611
2023-05-07T08:54:44.154Z,9.719548
2023-05-07T08:55:44.155Z,9.719408
2023-05-07T08:56:44.131Z,9.719368
2023-05-07T08:57:44.109Z,9.719260
2023-05-07T08:58:44.119Z,9.719255
2023-05-07T08:59:44.114Z,9.719215
2023-05-07T09:00:44.102Z,9.719310
2023-05-07T09:01:44.204Z,9.719363
2023-05-07T09:02:44.117Z,9.719454
2023-05-07T09:03:44.195Z,9.719395
2023-05-07T09:04:44.079Z,9.719392
2023-05-07T09:05:44.024Z,9.719369
2023-05-07T09:06:44.027Z,9.719462
2023-05-07T09:07:44.008Z,9.719404
2023-05-07T09:08:45.001Z,9.719356
2023-05-07T09:09:44.099Z,9.719122
2023-05-07T09:10:43.997Z,9.719099
2023-05-07T09:11:43.975Z,9.719114
2023-05-07T09:12:44.011Z,9.719074
2023-05-07T09:13:43.957Z,9.719125
2023-05-07T09:14:43.955Z,9.719134
2023-05-07T09:15:44.200Z,9.719088
2023-05-07T09:16:43.992Z,9.719092
2023-05-07T09:17:43.944Z,9.719114
2023-05-07T09:18:43.924Z,9.719094
2023-05-07T09:19:44.013Z,9.719178
2023-05-07T09:20:43.893Z,9.719136
2023-05-07T09:21:43.920Z,9.719145
2023-05-07T09:22:43.886Z,9.719149
2023-05-07T09:23:43.886Z,9.719131
2023-05-07T09:24:43.829Z,9.719156
2023-05-07T09:25:43.845Z,9.719141
2023-05-07T09:26:43.817Z,9.719144
2023-05-07T09:27:43.841Z,9.719172
2023-05-07T09:28:43.836Z,9.719181
2023-05-07T09:30:15.763Z,9.719155
2023-05-07T09:30:43.787Z,9.719183
2023-05-07T09:31:43.806Z,9.719160
2023-05-07T09:32:43.804Z,9.719135
2023-05-07T09:33:43.749Z,9.719111
2023-05-07T09:34:43.759Z,9.719178
2023-05-07T09:35:43.899Z,9.719175
2023-05-07T09:36:43.753Z,9.719173
2023-05-07T09:37:43.787Z,9.719235
2023-05-07T09:38:43.706Z,9.719177
2023-05-07T09:39:43.738Z,9.719264
2023-05-07T09:40:43.715Z,9.719215
2023-05-07T09:41:43.711Z,9.719218
2023-05-07T09:42:43.666Z,9.719236
2023-05-07T09:43:43.653Z,9.719231
2023-05-07T09:44:43.656Z,9.719257
2023-05-07T09:45:43.682Z,9.719144
2023-05-07T09:46:43.647Z,9.719270
2023-05-07T09:47:43.714Z,9.719296
2023-05-07T09:48:43.846Z,9.719316
2023-05-07T09:49:43.653Z,9.719267
2023-05-07T09:50:43.577Z,9.719295
2023-05-07T09:51:43.650Z,9.719337
2023-05-07T09:52:43.561Z,9.719302
2023-05-07T09:53:43.548Z,9.719219
2023-05-07T09:54:43.566Z,9.719283
2023-05-07T09:55:43.536Z,9.719358
2023-05-07T09:56:43.533Z,9.719290
2023-05-07T09:57:43.518Z,9.719336
2023-05-07T09:58:43.514Z,9.719326
2023-05-07T09:59:43.544Z,9.719302
2023-05-07T10:00:43.561Z,9.719169
2023-05-07T10:01:43.668Z,9.719298
2023-05-07T10:02:43.556Z,9.719276
2023-05-07T10:03:43.583Z,9.719275
2023-05-07T10:04:43.440Z,9.719294
2023-05-07T10:05:43.472Z,9.719322
2023-05-07T10:06:43.453Z,9.719357
2023-05-07T10:07:43.408Z,9.719305
2023-05-07T10:08:43.390Z,9.719311
2023-05-07T10:09:43.391Z,9.719090
2023-05-07T10:10:43.370Z,9.719216
2023-05-07T10:11:43.399Z,9.719204
2023-05-07T10:12:44.388Z,9.719336
2023-05-07T10:13:43.354Z,9.719369
2023-05-07T10:14:43.340Z,9.719286
2023-05-07T10:15:43.339Z,9.719296
2023-05-07T10:16:43.337Z,9.719268
2023-05-07T10:17:43.416Z,9.719295
2023-05-07T10:18:43.314Z,9.719346
2023-05-07T10:19:43.299Z,9.719339
2023-05-07T10:20:43.268Z,9.719315
2023-05-07T10:21:43.288Z,9.719242
2023-05-07T10:22:43.303Z,9.719230
2023-05-07T10:23:43.308Z,9.719314
2023-05-07T10:24:43.265Z,9.719400
2023-05-07T10:25:43.243Z,9.719307
2023-05-07T10:26:43.251Z,9.719344
2023-05-07T10:27:43.224Z,9.719341
2023-05-07T10:28:43.237Z,9.719285
2023-05-07T10:29:44.204Z,9.719247
2023-05-07T10:30:43.290Z,9.719296
2023-05-07T10:31:43.293Z,9.719325
2023-05-07T10:32:43.200Z,9.719203
2023-05-07T10:33:43.189Z,9.719213
2023-05-07T10:34:43.146Z,9.719444
2023-05-07T10:35:43.159Z,9.719232
2023-05-07T10:36:43.142Z,9.719282
2023-05-07T10:37:43.132Z,9.719290
2023-05-07T10:38:43.120Z,9.719382
2023-05-07T10:39:43.145Z,9.719459
2023-05-07T10:40:43.100Z,9.719244
2023-05-07T10:41:43.125Z,9.719128
2023-05-07T10:42:43.097Z,9.719227
2023-05-07T10:43:43.094Z,9.719214
2023-05-07T10:44:43.045Z,9.719157
2023-05-07T10:45:43.045Z,9.719213
2023-05-07T10:46:43.128Z,9.719132
2023-05-07T10:47:43.080Z,9.719069
2023-05-07T10:48:42.985Z,9.719078
2023-05-07T10:49:43.016Z,9.719275
2023-05-07T10:50:43.024Z,9.719350
2023-05-07T10:51:42.994Z,9.719166
2023-05-07T10:52:42.989Z,9.719221
2023-05-07T10:53:42.979Z,9.719172
2023-05-07T10:54:42.950Z,9.719275
2023-05-07T10:55:42.991Z,9.719141
2023-05-07T10:56:42.936Z,9.719043
2023-05-07T10:57:43.937Z,9.719126
2023-05-07T10:58:42.943Z,9.719032
2023-05-07T10:59:43.206Z,9.718969
2023-05-07T11:00:42.884Z,9.719088
2023-05-07T11:01:42.922Z,9.719138
2023-05-07T11:02:42.942Z,9.719090
2023-05-07T11:03:42.862Z,9.719011
2023-05-07T11:04:42.927Z,9.719040
2023-05-07T11:05:43.096Z,9.718897
2023-05-07T11:06:42.957Z,9.718889
2023-05-07T11:07:42.809Z,9.718849
2023-05-07T11:08:42.804Z,9.718936
2023-05-07T11:09:42.961Z,9.719113
2023-05-07T11:10:42.804Z,9.719215
2023-05-07T11:11:43.017Z,9.719212
2023-05-07T11:12:42.824Z,9.719188
2023-05-07T11:13:42.757Z,9.719087
2023-05-07T11:14:43.734Z,9.719043
2023-05-07T11:15:42.757Z,9.718902
2023-05-07T11:16:42.786Z,9.718981
2023-05-07T11:17:42.726Z,9.719103
2023-05-07T11:18:42.711Z,9.719047
2023-05-07T11:19:42.697Z,9.719059
2023-05-07T11:20:42.686Z,9.719089
2023-05-07T11:21:42.759Z,9.719052
2023-05-07T11:22:42.756Z,9.719049
2023-05-07T11:23:42.711Z,9.719134
2023-05-07T11:24:42.652Z,9.719055
2023-05-07T11:25:42.649Z,9.718939
2023-05-07T11:26:42.617Z,9.718990
2023-05-07T11:27:42.751Z,9.718944
2023-05-07T11:28:42.599Z,9.718862
2023-05-07T11:29:42.581Z,9.718946
2023-05-07T11:30:42.611Z,9.718934
2023-05-07T11:31:42.610Z,9.718985
2023-05-07T11:32:42.608Z,9.718876
2023-05-07T11:33:42.548Z,9.718608
2023-05-07T11:34:42.554Z,9.718506
2023-05-07T11:35:42.573Z,9.719050
2023-05-07T11:36:42.541Z,9.719040
2023-05-07T11:37:42.503Z,9.719062
2023-05-07T11:38:42.536Z,9.719019
2023-05-07T11:39:42.541Z,9.719045
2023-05-07T11:40:42.475Z,9.718972
2023-05-07T11:41:42.483Z,9.719021
2023-05-07T11:42:42.486Z,9.719061
2023-05-07T11:43:42.502Z,9.719017
2023-05-07T11:44:42.436Z,9.719082